sensor_id;sensor_type;location;lat;lon;timestamp;pressure;altitude;pressure_sealevel;temperature;humidity
80509;BME280;69838;52.602;13.434;2023-08-30T00:00:21;100299.09;;;12.64;100.00
80509;BME280;69838;52.602;13.434;2023-08-30T00:01:06;100292.91;;;12.62;100.00
80509;BME280;69838;52.602;13.434;2023-08-30T00:01:53;100280.72;;;12.55;100.00
80509;BME280;69838;52.602;13.434;2023-08-30T00:02:39;100294.63;;;12.63;100.00
80509;BME280;69838;52.602;13.434;2023-08-30T00:03:24;100282.06;;;12.62;100.00
80509;BME280;69838;52.602;13.434;2023-08-30T00:04:10;100290.38;;;12.59;100.00
80509;BME280;69838;52.602;13.434;2023-08-30T00:04:58;100285.94;;;12.58;100.00
80509;BME280;69838;52.602;13.434;2023-08-30T00:05:43;100281.50;;;12.57;100.00
80509;BME280;69838;52.602;13.434;2023-08-30T00:06:30;100283.13;;;12.59;100.00
80509;BME280;69838;52.602;13.434;2023-08-30T00:07:17;100285.94;;;12.58;100.00
80509;BME280;69838;52.602;13.434;2023-08-30T00:08:02;100289.63;;;12.57;100.00
80509;BME280;69838;52.602;13.434;2023-08-30T00:08:49;100290.38;;;12.59;100.00
80509;BME280;69838;52.602;13.434;2023-08-30T00:09:34;100290.09;;;12.64;100.00
80509;BME280;69838;52.602;13.434;2023-08-30T00:10:21;100289.44;;;12.60;100.00
80509;BME280;69838;52.602;13.434;2023-08-30T00:11:07;100285.28;;;12.54;100.00
80509;BME280;69838;52.602;13.434;2023-08-30T00:11:53;100294.84;;;12.60;100.00
80509;BME280;69838;52.602;13.434;2023-08-30T00:12:38;100287.69;;;12.59;100.00
80509;BME280;69838;52.602;13.434;2023-08-30T00:13:24;100289.63;;;12.57;100.00
80509;BME280;69838;52.602;13.434;2023-08-30T00:14:10;100295.78;;;12.59;100.00
80509;BME280;69838;52.602;13.434;2023-08-30T00:14:57;100295.03;;;12.57;100.00
80509;BME280;69838;52.602;13.434;2023-08-30T00:15:43;100274.72;;;12.50;100.00
80509;BME280;69838;52.602;13.434;2023-08-30T00:16:28;100292.41;;;12.55;100.00
80509;BME280;69838;52.602;13.434;2023-08-30T00:17:14;100284.38;;;12.54;100.00
80509;BME280;69838;52.602;13.434;2023-08-30T00:18:00;100283.44;;;12.55;100.00
80509;BME280;69838;52.602;13.434;2023-08-30T00:18:46;100289.72;;;12.55;100.00
80509;BME280;69838;52.602;13.434;2023-08-30T00:19:31;100287.84;;;12.56;100.00
80509;BME280;69838;52.602;13.434;2023-08-30T00:20:18;100294.06;;;12.58;100.00
80509;BME280;69838;52.602;13.434;2023-08-30T00:21:03;100289.63;;;12.57;100.00
80509;BME280;69838;52.602;13.434;2023-08-30T00:21:48;100276.56;;;12.49;100.00
80509;BME280;69838;52.602;13.434;2023-08-30T00:22:35;100291.56;;;12.55;100.00
80509;BME280;69838;52.602;13.434;2023-08-30T00:23:20;100288.66;;;12.58;100.00
80509;BME280;69838;52.602;13.434;2023-08-30T00:24:06;100290.56;;;12.56;100.00
80509;BME280;69838;52.602;13.434;2023-08-30T00:24:52;100284.47;;;12.52;100.00
80509;BME280;69838;52.602;13.434;2023-08-30T00:25:38;100279.38;;;12.48;100.00
80509;BME280;69838;52.602;13.434;2023-08-30T00:26:23;100279.19;;;12.51;100.00
80509;BME280;69838;52.602;13.434;2023-08-30T00:27:10;100293.50;;;12.53;100.00
80509;BME280;69838;52.602;13.434;2023-08-30T00:27:55;100284.19;;;12.57;100.00
80509;BME280;69838;52.602;13.434;2023-08-30T00:28:40;100272.88;;;12.50;100.00
80509;BME280;69838;52.602;13.434;2023-08-30T00:29:27;100279.97;;;12.53;100.00
80509;BME280;69838;52.602;13.434;2023-08-30T00:30:13;100287.00;;;12.55;100.00
80509;BME280;69838;52.602;13.434;2023-08-30T00:30:59;100286.16;;;12.55;100.00
80509;BME280;69838;52.602;13.434;2023-08-30T00:31:45;100293.50;;;12.53;100.00
80509;BME280;69838;52.602;13.434;2023-08-30T00:32:31;100289.03;;;12.52;100.00
80509;BME280;69838;52.602;13.434;2023-08-30T00:33:16;100293.50;;;12.53;100.00
80509;BME280;69838;52.602;13.434;2023-08-30T00:34:02;100281.69;;;12.54;100.00
80509;BME280;69838;52.602;13.434;2023-08-30T00:34:49;100283.03;;;12.47;100.00
80509;BME280;69838;52.602;13.434;2023-08-30T00:35:35;100261.69;;;12.42;100.00
80509;BME280;69838;52.602;13.434;2023-08-30T00:36:21;100269.72;;;12.44;100.00
80509;BME280;69838;52.602;13.434;2023-08-30T00:37:07;100285.38;;;12.53;100.00
80509;BME280;69838;52.602;13.434;2023-08-30T00:37:53;100288.25;;;12.50;100.00
80509;BME280;69838;52.602;13.434;2023-08-30T00:38:40;100280.81;;;12.53;100.00
80509;BME280;69838;52.602;13.434;2023-08-30T00:39:25;100287.84;;;12.56;100.00
80509;BME280;69838;52.602;13.434;2023-08-30T00:40:11;100279.88;;;12.54;100.00
80509;BME280;69838;52.602;13.434;2023-08-30T00:40:57;100267.00;;;12.44;100.00
80509;BME280;69838;52.602;13.434;2023-08-30T00:41:42;100272.22;;;12.47;100.00
80509;BME280;69838;52.602;13.434;2023-08-30T00:42:29;100279.56;;;12.45;100.00
80509;BME280;69838;52.602;13.434;2023-08-30T00:43:14;100276.84;;;12.45;100.00
80509;BME280;69838;52.602;13.434;2023-08-30T00:43:59;100279.56;;;12.45;100.00
80509;BME280;69838;52.602;13.434;2023-08-30T00:44:46;100283.03;;;12.47;100.00
80509;BME280;69838;52.602;13.434;2023-08-30T00:45:33;100283.03;;;12.47;100.00
80509;BME280;69838;52.602;13.434;2023-08-30T00:46:19;100284.03;;;12.46;100.00
80509;BME280;69838;52.602;13.434;2023-08-30T00:47:05;100284.97;;;12.45;100.00
80509;BME280;69838;52.602;13.434;2023-08-30T00:47:51;100270.00;;;12.39;100.00
80509;BME280;69838;52.602;13.434;2023-08-30T00:48:36;100279.56;;;12.45;100.00
80509;BME280;69838;52.602;13.434;2023-08-30T00:49:22;100273.47;;;12.41;100.00
80509;BME280;69838;52.602;13.434;2023-08-30T00:50:09;100272.63;;;12.40;100.00
80509;BME280;69838;52.602;13.434;2023-08-30T00:50:54;100281.31;;;12.46;100.00
80509;BME280;69838;52.602;13.434;2023-08-30T00:51:40;100286.72;;;12.46;100.00
80509;BME280;69838;52.602;13.434;2023-08-30T00:52:26;100273.97;;;12.48;100.00
80509;BME280;69838;52.602;13.434;2023-08-30T00:53:12;100282.09;;;12.48;100.00
80509;BME280;69838;52.602;13.434;2023-08-30T00:53:59;100278.63;;;12.46;100.00
80509;BME280;69838;52.602;13.434;2023-08-30T00:54:45;100276.56;;;12.49;100.00
80509;BME280;69838;52.602;13.434;2023-08-30T00:55:31;100265.66;;;12.36;100.00
80509;BME280;69838;52.602;13.434;2023-08-30T00:56:17;100275.91;;;12.46;100.00
80509;BME280;69838;52.602;13.434;2023-08-30T00:57:04;100283.03;;;12.47;100.00
80509;BME280;69838;52.602;13.434;2023-08-30T00:57:50;100273.28;;;12.44;100.00
80509;BME280;69838;52.602;13.434;2023-08-30T00:58:35;100273.28;;;12.44;100.00
80509;BME280;69838;52.602;13.434;2023-08-30T00:59:22;100258.69;;;12.32;100.00
80509;BME280;69838;52.602;13.434;2023-08-30T01:00:09;100276.00;;;12.44;100.00
80509;BME280;69838;52.602;13.434;2023-08-30T01:00:57;100272.63;;;12.40;100.00
80509;BME280;69838;52.602;13.434;2023-08-30T01:01:44;100267.00;;;12.44;100.00
80509;BME280;69838;52.602;13.434;2023-08-30T01:02:31;100280.44;;;12.45;100.00
80509;BME280;69838;52.602;13.434;2023-08-30T01:03:16;100282.28;;;12.45;100.00
80509;BME280;69838;52.602;13.434;2023-08-30T01:04:02;100284.97;;;12.45;100.00
80509;BME280;69838;52.602;13.434;2023-08-30T01:04:49;100280.66;;;12.42;100.00
80509;BME280;69838;52.602;13.434;2023-08-30T01:05:34;100276.00;;;12.44;100.00
80509;BME280;69838;52.602;13.434;2023-08-30T01:06:20;100281.31;;;12.46;100.00
80509;BME280;69838;52.602;13.434;2023-08-30T01:07:06;100278.03;;;12.40;100.00
80509;BME280;69838;52.602;13.434;2023-08-30T01:07:52;100279.75;;;12.41;100.00
80509;BME280;69838;52.602;13.434;2023-08-30T01:08:37;100279.75;;;12.41;100.00
80509;BME280;69838;52.602;13.434;2023-08-30T01:09:25;100278.81;;;12.43;100.00
80509;BME280;69838;52.602;13.434;2023-08-30T01:10:10;100273.47;;;12.41;100.00
80509;BME280;69838;52.602;13.434;2023-08-30T01:11:02;100276.09;;;12.43;100.00
80509;BME280;69838;52.602;13.434;2023-08-30T01:11:56;100274.66;;;12.37;100.00
80509;BME280;69838;52.602;13.434;2023-08-30T01:12:47;100275.69;;;12.34;100.00
80509;BME280;69838;52.602;13.434;2023-08-30T01:13:37;100271.28;;;12.33;100.00
80509;BME280;69838;52.602;13.434;2023-08-30T01:14:30;100277.63;;;12.32;100.00
80509;BME280;69838;52.602;13.434;2023-08-30T01:15:19;100278.63;;;12.31;100.00
80509;BME280;69838;52.602;13.434;2023-08-30T01:16:07;100280.16;;;12.35;100.00
80509;BME280;69838;52.602;13.434;2023-08-30T01:16:53;100281.91;;;12.36;100.00
80509;BME280;69838;52.602;13.434;2023-08-30T01:17:39;100290.97;;;12.35;100.00
80509;BME280;69838;52.602;13.434;2023-08-30T01:18:29;100288.47;;;12.32;100.00
80509;BME280;69838;52.602;13.434;2023-08-30T01:19:34;100288.19;;;12.37;100.00
80509;BME280;69838;52.602;13.434;2023-08-30T01:20:25;100273.75;;;12.22;100.00
80509;BME280;69838;52.602;13.434;2023-08-30T01:21:21;100298.16;;;12.36;100.00
80509;BME280;69838;52.602;13.434;2023-08-30T01:22:11;100290.97;;;12.35;100.00
80509;BME280;69838;52.602;13.434;2023-08-30T01:23:03;100287.50;;;12.33;100.00
80509;BME280;69838;52.602;13.434;2023-08-30T01:23:57;100293.69;;;12.35;100.00
80509;BME280;69838;52.602;13.434;2023-08-30T01:24:48;100296.41;;;12.35;100.00
80509;BME280;69838;52.602;13.434;2023-08-30T01:25:46;100287.50;;;12.33;100.00
80509;BME280;69838;52.602;13.434;2023-08-30T01:26:41;100292.75;;;12.36;100.00
80509;BME280;69838;52.602;13.434;2023-08-30T01:27:28;100296.31;;;12.37;100.00
80509;BME280;69838;52.602;13.434;2023-08-30T01:28:20;100278.81;;;12.28;100.00
80509;BME280;69838;52.602;13.434;2023-08-30T01:29:08;100290.97;;;12.35;100.00
80509;BME280;69838;52.602;13.434;2023-08-30T01:29:56;100286.75;;;12.31;100.00
80509;BME280;69838;52.602;13.434;2023-08-30T01:30:43;100296.41;;;12.35;100.00
80509;BME280;69838;52.602;13.434;2023-08-30T01:31:32;100296.59;;;12.32;100.00
80509;BME280;69838;52.602;13.434;2023-08-30T01:32:19;100271.19;;;12.20;100.00
80509;BME280;69838;52.602;13.434;2023-08-30T01:33:05;100297.47;;;12.33;100.00
80509;BME280;69838;52.602;13.434;2023-08-30T01:33:52;100299.19;;;12.34;100.00
80509;BME280;69838;52.602;13.434;2023-08-30T01:34:39;100289.63;;;12.28;100.00
80509;BME280;69838;52.602;13.434;2023-08-30T01:35:25;100298.34;;;12.33;100.00
80509;BME280;69838;52.602;13.434;2023-08-30T01:36:17;100301.13;;;12.32;100.00
80509;BME280;69838;52.602;13.434;2023-08-30T01:37:03;100300.06;;;12.34;100.00
80509;BME280;69838;52.602;13.434;2023-08-30T01:37:51;100309.94;;;12.35;100.00
80509;BME280;69838;52.602;13.434;2023-08-30T01:38:39;100308.97;;;12.36;100.00
80509;BME280;69838;52.602;13.434;2023-08-30T01:39:25;100302.66;;;12.36;100.00
80509;BME280;69838;52.602;13.434;2023-08-30T01:40:13;100303.75;;;12.33;100.00
80509;BME280;69838;52.602;13.434;2023-08-30T01:41:01;100297.34;;;12.34;100.00
80509;BME280;69838;52.602;13.434;2023-08-30T01:41:47;100292.34;;;12.28;100.00
80509;BME280;69838;52.602;13.434;2023-08-30T01:42:35;100291.38;;;12.29;100.00
80509;BME280;69838;52.602;13.434;2023-08-30T01:43:21;100305.47;;;12.34;100.00
80509;BME280;69838;52.602;13.434;2023-08-30T01:44:07;100303.75;;;12.33;100.00
80509;BME280;69838;52.602;13.434;2023-08-30T01:44:56;100289.81;;;12.25;100.00
80509;BME280;69838;52.602;13.434;2023-08-30T01:45:44;100309.16;;;12.33;100.00
80509;BME280;69838;52.602;13.434;2023-08-30T01:46:31;100285.56;;;12.21;100.00
80509;BME280;69838;52.602;13.434;2023-08-30T01:47:18;100303.94;;;12.30;100.00
80509;BME280;69838;52.602;13.434;2023-08-30T01:48:05;100297.75;;;12.28;100.00
80509;BME280;69838;52.602;13.434;2023-08-30T01:48:52;100291.56;;;12.26;100.00
80509;BME280;69838;52.602;13.434;2023-08-30T01:49:39;100306.38;;;12.35;100.00
80509;BME280;69838;52.602;13.434;2023-08-30T01:50:26;100304.59;;;12.34;100.00
80509;BME280;69838;52.602;13.434;2023-08-30T01:51:13;100276.09;;;12.14;100.00
80509;BME280;69838;52.602;13.434;2023-08-30T01:52:00;100292.53;;;12.25;100.00
80509;BME280;69838;52.602;13.434;2023-08-30T01:52:47;100297.16;;;12.23;100.00
80509;BME280;69838;52.602;13.434;2023-08-30T01:53:34;100299.59;;;12.28;100.00
80509;BME280;69838;52.602;13.434;2023-08-30T01:54:20;100307.63;;;12.29;100.00
80509;BME280;69838;52.602;13.434;2023-08-30T01:55:08;100308.66;;;12.27;100.00
80509;BME280;69838;52.602;13.434;2023-08-30T01:55:54;100313.03;;;12.29;100.00
80509;BME280;69838;52.602;13.434;2023-08-30T01:56:40;100319.22;;;12.31;100.00
80509;BME280;69838;52.602;13.434;2023-08-30T01:57:25;100318.44;;;12.29;100.00
80509;BME280;69838;52.602;13.434;2023-08-30T01:58:12;100321.16;;;12.29;100.00
80509;BME280;69838;52.602;13.434;2023-08-30T01:58:59;100319.69;;;12.23;100.00
80509;BME280;69838;52.602;13.434;2023-08-30T01:59:44;100315.84;;;12.28;100.00
80509;BME280;69838;52.602;13.434;2023-08-30T02:00:29;100319.41;;;12.28;100.00
80509;BME280;69838;52.602;13.434;2023-08-30T02:01:16;100312.44;;;12.24;100.00
80509;BME280;69838;52.602;13.434;2023-08-30T02:02:01;100322.09;;;12.28;100.00
80509;BME280;69838;52.602;13.434;2023-08-30T02:02:49;100316.69;;;12.28;100.00
80509;BME280;69838;52.602;13.434;2023-08-30T02:03:35;100313.22;;;12.26;100.00
80509;BME280;69838;52.602;13.434;2023-08-30T02:04:20;100299.00;;;12.22;100.00
80509;BME280;69838;52.602;13.434;2023-08-30T02:05:07;100314.84;;;12.29;100.00
80509;BME280;69838;52.602;13.434;2023-08-30T02:06:00;100299.97;;;12.21;100.00
80509;BME280;69838;52.602;13.434;2023-08-30T02:06:52;100309.75;;;12.24;100.00
80509;BME280;69838;52.602;13.434;2023-08-30T02:07:45;100312.13;;;12.29;100.00
80509;BME280;69838;52.602;13.434;2023-08-30T02:08:38;100296.50;;;12.19;100.00
80509;BME280;69838;52.602;13.434;2023-08-30T02:09:28;100294.28;;;12.26;100.00
80509;BME280;69838;52.602;13.434;2023-08-30T02:10:19;100303.06;;;12.30;100.00
80509;BME280;69838;52.602;13.434;2023-08-30T02:11:08;100299.00;;;12.22;100.00
80509;BME280;69838;52.602;13.434;2023-08-30T02:12:00;100297.16;;;12.23;100.00
80509;BME280;69838;52.602;13.434;2023-08-30T02:12:47;100288.09;;;12.24;100.00
80509;BME280;69838;52.602;13.434;2023-08-30T02:13:34;100280.44;;;12.16;100.00
80509;BME280;69838;52.602;13.434;2023-08-30T02:14:22;100292.16;;;12.17;100.00
80509;BME280;69838;52.602;13.434;2023-08-30T02:15:10;100292.81;;;12.20;100.00
80509;BME280;69838;52.602;13.434;2023-08-30T02:15:58;100296.56;;;12.18;100.00
80509;BME280;69838;52.602;13.434;2023-08-30T02:16:47;100295.81;;;12.16;100.00
80509;BME280;69838;52.602;13.434;2023-08-30T02:17:35;100294.34;;;12.10;100.00
80509;BME280;69838;52.602;13.434;2023-08-30T02:18:20;100286.44;;;12.07;100.00
80509;BME280;69838;52.602;13.434;2023-08-30T02:19:07;100297.06;;;12.10;100.00
80509;BME280;69838;52.602;13.434;2023-08-30T02:19:53;100301.63;;;12.10;100.00
80509;BME280;69838;52.602;13.434;2023-08-30T02:20:39;100289.63;;;11.99;100.00
80509;BME280;69838;52.602;13.434;2023-08-30T02:21:25;100303.53;;;12.08;100.00
80509;BME280;69838;52.602;13.434;2023-08-30T02:22:11;100300.34;;;12.01;100.00
80509;BME280;69838;52.602;13.434;2023-08-30T02:22:58;100303.91;;;12.01;100.00
80509;BME280;69838;52.602;13.434;2023-08-30T02:23:49;100299.38;;;12.02;100.00
80509;BME280;69838;52.602;13.434;2023-08-30T02:24:34;100304.00;;;12.00;100.00
80509;BME280;69838;52.602;13.434;2023-08-30T02:25:20;100303.22;;;11.98;100.00
80509;BME280;69838;52.602;13.434;2023-08-30T02:26:09;100304.09;;;11.98;100.00
80509;BME280;69838;52.602;13.434;2023-08-30T02:26:54;100299.75;;;11.96;100.00
80509;BME280;69838;52.602;13.434;2023-08-30T02:27:40;100289.25;;;11.90;100.00
80509;BME280;69838;52.602;13.434;2023-08-30T02:28:26;100284.06;;;11.87;100.00
80509;BME280;69838;52.602;13.434;2023-08-30T02:29:13;100276.03;;;11.85;100.00
80509;BME280;69838;52.602;13.434;2023-08-30T02:30:00;100279.09;;;11.79;100.00
80509;BME280;69838;52.602;13.434;2023-08-30T02:30:45;100295.66;;;11.89;100.00
80509;BME280;69838;52.602;13.434;2023-08-30T02:31:31;100288.78;;;11.83;100.00
80509;BME280;69838;52.602;13.434;2023-08-30T02:32:17;100307.41;;;11.88;100.00
80509;BME280;69838;52.602;13.434;2023-08-30T02:33:05;100298.53;;;11.85;100.00
80509;BME280;69838;52.602;13.434;2023-08-30T02:33:51;100305.69;;;11.87;100.00
80509;BME280;69838;52.602;13.434;2023-08-30T02:34:37;100303.09;;;11.85;100.00
80509;BME280;69838;52.602;13.434;2023-08-30T02:35:22;100315.63;;;11.86;100.00
80509;BME280;69838;52.602;13.434;2023-08-30T02:36:08;100311.38;;;11.82;100.00
80509;BME280;69838;52.602;13.434;2023-08-30T02:36:55;100306.06;;;11.80;100.00
80509;BME280;69838;52.602;13.434;2023-08-30T02:37:41;100301.03;;;11.74;100.00
80509;BME280;69838;52.602;13.434;2023-08-30T02:38:28;100298.41;;;11.73;100.00
80509;BME280;69838;52.602;13.434;2023-08-30T02:39:14;100302.97;;;11.72;100.00
80509;BME280;69838;52.602;13.434;2023-08-30T02:40:00;100302.88;;;11.74;100.00
80509;BME280;69838;52.602;13.434;2023-08-30T02:40:46;100299.19;;;11.75;100.00
80509;BME280;69838;52.602;13.434;2023-08-30T02:41:32;100294.75;;;11.74;100.00
80509;BME280;69838;52.602;13.434;2023-08-30T02:42:17;100298.41;;;11.73;100.00
80509;BME280;69838;52.602;13.434;2023-08-30T02:43:03;100293.19;;;11.70;100.00
80509;BME280;69838;52.602;13.434;2023-08-30T02:43:49;100300.34;;;11.71;100.00
80509;BME280;69838;52.602;13.434;2023-08-30T02:44:36;100297.56;;;11.72;100.00
80509;BME280;69838;52.602;13.434;2023-08-30T02:45:21;100300.53;;;11.68;100.00
80509;BME280;69838;52.602;13.434;2023-08-30T02:46:08;100291.47;;;11.69;100.00
80509;BME280;69838;52.602;13.434;2023-08-30T02:46:53;100299.47;;;11.70;100.00
80509;BME280;69838;52.602;13.434;2023-08-30T02:47:38;100305.06;;;11.67;100.00
80509;BME280;69838;52.602;13.434;2023-08-30T02:48:24;100304.22;;;11.67;100.00
80509;BME280;69838;52.602;13.434;2023-08-30T02:49:10;100302.63;;;11.62;100.00
80509;BME280;69838;52.602;13.434;2023-08-30T02:49:56;100294.59;;;11.61;100.00
80509;BME280;69838;52.602;13.434;2023-08-30T02:50:42;100307.00;;;11.65;100.00
80509;BME280;69838;52.602;13.434;2023-08-30T02:51:28;100305.94;;;11.68;100.00
80509;BME280;69838;52.602;13.434;2023-08-30T02:52:13;100301.28;;;11.70;100.00
80509;BME280;69838;52.602;13.434;2023-08-30T02:52:59;100304.78;;;11.72;100.00
80509;BME280;69838;52.602;13.434;2023-08-30T02:53:45;100301.03;;;11.74;100.00
80509;BME280;69838;52.602;13.434;2023-08-30T02:54:30;100279.06;;;11.64;100.00
80509;BME280;69838;52.602;13.434;2023-08-30T02:55:16;100299.97;;;11.77;100.00
80509;BME280;69838;52.602;13.434;2023-08-30T02:56:02;100289.13;;;11.77;100.00
80509;BME280;69838;52.602;13.434;2023-08-30T02:56:48;100250.66;;;11.57;100.00
80509;BME280;69838;52.602;13.434;2023-08-30T02:57:35;100287.22;;;11.79;100.00
80509;BME280;69838;52.602;13.434;2023-08-30T02:58:20;100284.50;;;11.79;100.00
80509;BME280;69838;52.602;13.434;2023-08-30T02:59:05;100286.25;;;11.80;100.00
80509;BME280;69838;52.602;13.434;2023-08-30T02:59:53;100282.69;;;11.79;100.00
80509;BME280;69838;52.602;13.434;2023-08-30T03:00:38;100276.59;;;11.76;100.00
80509;BME280;69838;52.602;13.434;2023-08-30T03:01:24;100279.22;;;11.77;100.00
80509;BME280;69838;52.602;13.434;2023-08-30T03:02:10;100274.66;;;11.78;100.00
80509;BME280;69838;52.602;13.434;2023-08-30T03:02:55;100273.13;;;11.74;100.00
80509;BME280;69838;52.602;13.434;2023-08-30T03:03:41;100258.63;;;11.75;100.00
80509;BME280;69838;52.602;13.434;2023-08-30T03:04:27;100248.56;;;11.62;100.00
80509;BME280;69838;52.602;13.434;2023-08-30T03:05:13;100265.97;;;11.73;100.00
80509;BME280;69838;52.602;13.434;2023-08-30T03:05:58;100269.84;;;11.69;100.00
80509;BME280;69838;52.602;13.434;2023-08-30T03:06:44;100267.91;;;11.71;100.00
80509;BME280;69838;52.602;13.434;2023-08-30T03:07:30;100256.66;;;11.62;100.00
80509;BME280;69838;52.602;13.434;2023-08-30T03:08:15;100238.88;;;11.44;100.00
80509;BME280;69838;52.602;13.434;2023-08-30T03:09:02;100267.69;;;11.59;100.00
80509;BME280;69838;52.602;13.434;2023-08-30T03:09:52;100266.88;;;11.57;100.00
80509;BME280;69838;52.602;13.434;2023-08-30T03:10:38;100269.59;;;11.57;100.00
80509;BME280;69838;52.602;13.434;2023-08-30T03:11:24;100266.88;;;11.57;100.00
80509;BME280;69838;52.602;13.434;2023-08-30T03:12:09;100266.09;;;11.55;100.00
80509;BME280;69838;52.602;13.434;2023-08-30T03:12:55;100246.03;;;11.45;100.00
80509;BME280;69838;52.602;13.434;2023-08-30T03:13:41;100242.50;;;11.43;100.00
80509;BME280;69838;52.602;13.434;2023-08-30T03:14:26;100248.59;;;11.46;100.00
80509;BME280;69838;52.602;13.434;2023-08-30T03:15:13;100254.91;;;11.47;100.00
80509;BME280;69838;52.602;13.434;2023-08-30T03:15:59;100250.06;;;11.38;100.00
80509;BME280;69838;52.602;13.434;2023-08-30T03:16:45;100251.78;;;11.39;100.00
80509;BME280;69838;52.602;13.434;2023-08-30T03:17:32;100249.47;;;11.33;100.00
80509;BME280;69838;52.602;13.434;2023-08-30T03:18:18;100258.16;;;11.38;100.00
80509;BME280;69838;52.602;13.434;2023-08-30T03:19:03;100257.19;;;11.39;100.00
80509;BME280;69838;52.602;13.434;2023-08-30T03:19:51;100248.69;;;11.31;100.00
80509;BME280;69838;52.602;13.434;2023-08-30T03:20:38;100264.34;;;11.40;100.00
80509;BME280;69838;52.602;13.434;2023-08-30T03:21:23;100264.34;;;11.40;100.00
80509;BME280;69838;52.602;13.434;2023-08-30T03:22:08;100271.47;;;11.41;100.00
80509;BME280;69838;52.602;13.434;2023-08-30T03:22:56;100258.94;;;11.40;100.00
80509;BME280;69838;52.602;13.434;2023-08-30T03:23:41;100233.59;;;11.26;100.00
80509;BME280;69838;52.602;13.434;2023-08-30T03:24:27;100252.84;;;11.36;100.00
80509;BME280;69838;52.602;13.434;2023-08-30T03:25:13;100253.72;;;11.37;100.00
80509;BME280;69838;52.602;13.434;2023-08-30T03:25:58;100255.47;;;11.38;100.00
80509;BME280;69838;52.602;13.434;2023-08-30T03:26:44;100252.75;;;11.38;100.00
80509;BME280;69838;52.602;13.434;2023-08-30T03:27:32;100244.84;;;11.35;100.00
80509;BME280;69838;52.602;13.434;2023-08-30T03:28:17;100244.22;;;11.30;100.00
80509;BME280;69838;52.602;13.434;2023-08-30T03:29:04;100254.94;;;11.31;100.00
80509;BME280;69838;52.602;13.434;2023-08-30T03:29:49;100246.94;;;11.30;100.00
80509;BME280;69838;52.602;13.434;2023-08-30T03:30:36;100255.81;;;11.32;100.00
80509;BME280;69838;52.602;13.434;2023-08-30T03:31:22;100234.59;;;11.10;100.00
80509;BME280;69838;52.602;13.434;2023-08-30T03:32:07;100260.28;;;11.33;100.00
80509;BME280;69838;52.602;13.434;2023-08-30T03:32:54;100265.69;;;11.33;100.00
80509;BME280;69838;52.602;13.434;2023-08-30T03:33:39;100266.78;;;11.28;100.00
80509;BME280;69838;52.602;13.434;2023-08-30T03:34:26;100255.41;;;11.23;100.00
80509;BME280;69838;52.602;13.434;2023-08-30T03:35:12;100263.31;;;11.26;100.00
80509;BME280;69838;52.602;13.434;2023-08-30T03:36:00;100270.66;;;11.24;100.00
80509;BME280;69838;52.602;13.434;2023-08-30T03:36:45;100256.38;;;11.22;100.00
80509;BME280;69838;52.602;13.434;2023-08-30T03:37:35;100264.28;;;11.25;100.00
80509;BME280;69838;52.602;13.434;2023-08-30T03:38:21;100266.09;;;11.25;100.00
80509;BME280;69838;52.602;13.434;2023-08-30T03:39:06;100266.03;;;11.26;100.00
80509;BME280;69838;52.602;13.434;2023-08-30T03:39:52;100267.00;;;11.25;100.00
80509;BME280;69838;52.602;13.434;2023-08-30T03:40:38;100267.94;;;11.24;100.00
80509;BME280;69838;52.602;13.434;2023-08-30T03:41:24;100270.66;;;11.24;100.00
80509;BME280;69838;52.602;13.434;2023-08-30T03:42:10;100257.59;;;11.17;100.00
80509;BME280;69838;52.602;13.434;2023-08-30T03:42:56;100276.44;;;11.18;100.00
80509;BME280;69838;52.602;13.434;2023-08-30T03:43:41;100281.13;;;11.15;100.00
80509;BME280;69838;52.602;13.434;2023-08-30T03:44:28;100272.84;;;11.18;100.00
80509;BME280;69838;52.602;13.434;2023-08-30T03:45:13;100276.59;;;11.15;100.00
80509;BME280;69838;52.602;13.434;2023-08-30T03:46:00;100281.81;;;11.18;100.00
80509;BME280;69838;52.602;13.434;2023-08-30T03:46:48;100273.03;;;11.15;100.00
80509;BME280;69838;52.602;13.434;2023-08-30T03:47:33;100282.84;;;11.16;100.00
80509;BME280;69838;52.602;13.434;2023-08-30T03:48:19;100270.59;;;11.10;100.00
80509;BME280;69838;52.602;13.434;2023-08-30T03:49:05;100279.03;;;11.20;100.00
80509;BME280;69838;52.602;13.434;2023-08-30T03:49:50;100276.44;;;11.18;100.00
80509;BME280;69838;52.602;13.434;2023-08-30T03:50:37;100281.81;;;11.18;100.00
80509;BME280;69838;52.602;13.434;2023-08-30T03:51:22;100280.06;;;11.17;100.00
80509;BME280;69838;52.602;13.434;2023-08-30T03:52:08;100282.78;;;11.17;100.00
80509;BME280;69838;52.602;13.434;2023-08-30T03:52:54;100282.69;;;11.19;100.00
80509;BME280;69838;52.602;13.434;2023-08-30T03:53:39;100283.56;;;11.19;100.00
80509;BME280;69838;52.602;13.434;2023-08-30T03:54:25;100280.06;;;11.17;100.00
80509;BME280;69838;52.602;13.434;2023-08-30T03:55:11;100279.13;;;11.18;100.00
80509;BME280;69838;52.602;13.434;2023-08-30T03:55:57;100264.41;;;11.08;100.00
80509;BME280;69838;52.602;13.434;2023-08-30T03:56:43;100273.13;;;11.13;100.00
80509;BME280;69838;52.602;13.434;2023-08-30T03:57:30;100279.28;;;11.15;100.00
80509;BME280;69838;52.602;13.434;2023-08-30T03:58:16;100292.63;;;11.18;100.00